Aérodrome :
LOGIN :

S'inscrire | Disclaimer

   EN    FR    IT 

 










Légende :    VFR   VFR Marginal   IFR   IFR Intensif   IFR Très Intensif
Visi : 
Plafond : 
>= 8 km
>= 3000ft
5 à 8 km
1000 à 3000 ft
1500m à 5 km
500 à 1000 ft
800 à 1500m
200 à 500 ft
< 800m
< 200 ft
Symboles :   Orages  Brouillard  Fortes neiges  Fortes précipitations  Vent > 20 kt
SIGMETs :   Divers  Orages  Givrage  Turbulence  Onde Orograph.  Cendres Volcan.






- Altitude de l'aérodrome : 0 ft


ETEB - Ansbach Army Heliport

DERNIER METAR :
  • 200045Z AUTO 28015G22KT 9999 -RA OVC015 04/02 A2979 RMK AO2 RAB45 SLP112 $

METARs EXPIRÉS :
  • 200040Z AUTO 28013G21KT 9999 BKN014 OVC019 04/02 A2979 RMK AO2 SLP112 $
  • 200025Z AUTO 27012G19KT 9999 OVC017 04/02 A2979 RMK AO2 CIG 013V017 SLP112 $
  • 192355Z AUTO 27010KT 9999 OVC013 04/02 A2978 RMK AO2 SLP109 60002 T00410020 10048 20039 52008 $
  • 192255Z AUTO 26013KT 9999 OVC012 04/02 A2978 RMK AO2 SLP109 T00430022 400610026 $
  • 192225Z AUTO 27012KT 9999 BKN014 BKN040 04/02 A2977 RMK AO2 CIG 014V040 SLP105 $
  • 192155Z AUTO 27015KT 9999 SCT016 BKN038 04/02 A2977 RMK AO2 SLP105 T00410018 $
  • 192140Z AUTO 27012KT 9999 SCT016 BKN038 05/02 A2977 RMK AO2 SLP104 $
  • 192110Z AUTO 27010KT 9999 SCT013 BKN020 BKN039 05/03 A2976 RMK AO2 CIG 020V038 BKN020 V SCT SLP101 $
  • 192055Z AUTO 27013KT 9999 FEW013 SCT019 BKN036 05/03 A2976 RMK AO2 SLP101 60002 T00460026 53016 $
  • 192040Z AUTO 27011KT 9999 SCT012 SCT019 BKN036 05/03 A2975 RMK AO2 SLP097 $
  • 191955Z AUTO 26011KT 9999 BKN010 05/03 A2973 RMK AO2 BKN V OVC SLP091 T00470029 $

TAF TAF ETEB
Valide du 19 à 15h jusqu'au 20 à 21h UTC


191500Z 1915/2021 26010G25KT 8000 -RA BKN009 OVC015 650409 520006 QNH2969INS
BECMG 2000/2001 28010G25KT 9999 NSW BKN010 BKN030 620306 520006 QNH2978INS
BECMG 2003/2004 30010G20KT 8000 -RA BKN007 BKN030 620306 520006 QNH2981INS
BECMG 2012/2013 34010G25KT 9999 NSW BKN030 620306 510006 QNH3000INS
BECMG 2016/2017 33006KT 9999 BKN030 620306 QNH3001INS TX05/1918Z TN02/2006Z LAST NO AMDS AFT 1922 NEXT 2207



MET'MAP, la Météo Aéronautique d'un coup d'oeil ! - Copyright ORBIFLY Décembre 2007 - Disclaimer

ORBIFLY MET'MAP TEAM :

Programmation & Développement : Alexandra Zaïnal
Sur une idée originale de : Baudouin d'Aumeries
Soutien technique & logistique : Manuel Goepfert
Assistance : Marc-Olivier Méhu




SOURCES & CREDITS :

   NOAA